Time;durP1;ratioP1;P1;durP2;ratioP2;P2;SDS_P1;SDS_P2;PMS_P1;PMS_P2;Temp;Humidity;BMP_temperature;BMP_pressure;BME280_temperature;BME280_humidity;BME280_pressure;Samples;Min_cycle;Max_cycle;Signal;HPM_P1;HPM_P2
2023/01/18 00:00:07;;;;;;;6.57;3.70;;;-0.60;99.90;;;;;;5028269;28;20794;-66
2023/01/18 00:02:33;;;;;;;6.65;3.40;;;-0.50;99.90;;;;;;5026987;28;20087;-66
2023/01/18 00:04:58;;;;;;;5.68;3.60;;;-0.50;99.90;;;;;;5031680;28;20041;-66
2023/01/18 00:07:24;;;;;;;5.05;3.60;;;-0.50;99.90;;;;;;5029401;28;20053;-66
2023/01/18 00:09:49;;;;;;;6.88;3.50;;;-0.60;99.90;;;;;;5028880;28;20037;-67
2023/01/18 00:12:15;;;;;;;6.47;3.50;;;-0.60;99.90;;;;;;5030774;28;20562;-66
2023/01/18 00:14:40;;;;;;;7.70;3.92;;;-0.60;99.90;;;;;;5023820;28;20476;-66
2023/01/18 00:17:06;;;;;;;5.70;3.28;;;-0.60;99.90;;;;;;5027993;28;20095;-67
2023/01/18 00:19:32;;;;;;;5.97;3.80;;;-0.60;99.90;;;;;;5044115;28;20026;-66
2023/01/18 00:21:58;;;;;;;5.45;3.50;;;-0.70;99.90;;;;;;5027115;28;20037;-66
2023/01/18 00:24:26;;;;;;;6.18;3.53;;;-0.70;99.90;;;;;;5028070;28;20402;-66
2023/01/18 00:26:52;;;;;;;9.38;3.90;;;-0.70;99.90;;;;;;5027020;28;20116;-66
2023/01/18 00:29:18;;;;;;;7.38;4.25;;;-0.70;99.90;;;;;;5025434;28;20451;-67
2023/01/18 00:31:44;;;;;;;8.23;4.00;;;-0.70;99.90;;;;;;5026115;28;20041;-66
2023/01/18 00:34:10;;;;;;;5.80;3.50;;;-0.70;99.90;;;;;;5022560;28;20120;-67
2023/01/18 00:36:36;;;;;;;8.07;3.40;;;-0.70;99.90;;;;;;5024348;28;20045;-66
2023/01/18 00:39:01;;;;;;;5.82;3.60;;;-0.70;99.90;;;;;;5018660;28;20060;-65
2023/01/18 00:41:27;;;;;;;5.13;4.20;;;-0.70;99.90;;;;;;5023536;28;20025;-66
2023/01/18 00:43:53;;;;;;;6.53;3.85;;;-0.70;99.90;;;;;;5028185;28;20045;-67
2023/01/18 00:46:24;;;;;;;6.28;4.00;;;-0.70;99.90;;;;;;5030883;28;20041;-66
2023/01/18 00:48:51;;;;;;;7.07;3.75;;;-0.70;99.90;;;;;;5031607;28;20037;-67
2023/01/18 00:51:20;;;;;;;6.90;3.88;;;-0.60;99.90;;;;;;5026226;28;20128;-66
2023/01/18 00:53:46;;;;;;;5.83;4.30;;;-0.70;99.90;;;;;;5027692;28;20049;-66
2023/01/18 00:56:17;;;;;;;6.40;4.28;;;-0.70;99.90;;;;;;5028915;28;20172;-66
2023/01/18 00:58:43;;;;;;;10.77;4.95;;;-0.70;99.90;;;;;;5026613;28;20140;-66
2023/01/18 01:01:10;;;;;;;7.30;4.43;;;-0.80;99.90;;;;;;5026806;28;20474;-66
2023/01/18 01:06:44;;;;;;;6.10;4.22;;;-0.80;99.90;;;;;;5028778;28;20520;-66
2023/01/18 01:09:13;;;;;;;7.10;4.85;;;-0.90;99.90;;;;;;5028219;28;20043;-66
2023/01/18 01:11:39;;;;;;;6.68;4.65;;;-0.80;99.90;;;;;;5032146;28;20056;-66
2023/01/18 01:27:45;;;;;;;6.22;5.07;;;-0.80;99.90;;;;;;5026525;28;20136;-66
2023/01/18 01:30:11;;;;;;;6.30;4.32;;;-0.80;99.90;;;;;;5027072;28;20592;-66
2023/01/18 01:32:36;;;;;;;9.73;5.22;;;-0.90;99.90;;;;;;5028789;28;20428;-66
2023/01/18 01:35:03;;;;;;;7.90;4.70;;;-0.90;99.90;;;;;;5025310;28;20432;-66
2023/01/18 01:37:28;;;;;;;7.32;4.80;;;-0.90;99.90;;;;;;5020082;28;20049;-66
2023/01/18 01:39:54;;;;;;;9.07;5.20;;;-0.90;99.90;;;;;;5025193;28;20625;-66
2023/01/18 01:42:19;;;;;;;6.25;4.72;;;-0.90;99.90;;;;;;5029892;28;20029;-66
2023/01/18 01:44:50;;;;;;;11.15;5.32;;;-0.90;99.90;;;;;;5023065;28;20384;-66
2023/01/18 01:47:31;;;;;;;8.43;5.07;;;-0.90;99.90;;;;;;5026542;28;20079;-66
2023/01/18 01:50:02;;;;;;;11.82;5.25;;;-0.90;99.90;;;;;;5028736;28;20373;-66
2023/01/18 01:52:33;;;;;;;9.40;4.75;;;-0.90;99.90;;;;;;5028992;28;20037;-66
2023/01/18 01:55:07;;;;;;;8.85;5.07;;;-1.00;99.90;;;;;;5020525;28;20091;-66
2023/01/18 01:57:45;;;;;;;8.23;5.50;;;-0.90;99.90;;;;;;5024313;28;20033;-65
2023/01/18 02:00:15;;;;;;;7.93;5.13;;;-0.90;99.90;;;;;;5024737;28;20470;-65
2023/01/18 02:02:43;;;;;;;;;;;-0.90;99.90;;;;;;5026023;28;20449;-65
2023/01/18 02:05:11;;;;;;;7.68;5.30;;;-0.90;99.90;;;;;;5028896;28;20474;-65
2023/01/18 02:07:36;;;;;;;8.45;5.20;;;-1.00;99.90;;;;;;5024320;28;20438;-65
2023/01/18 02:10:04;;;;;;;9.45;5.72;;;-1.00;99.90;;;;;;5030120;28;20132;-65
2023/01/18 02:12:31;;;;;;;9.40;5.68;;;-1.00;99.90;;;;;;5031314;28;20033;-66
2023/01/18 02:14:58;;;;;;;9.00;6.10;;;-1.10;99.90;;;;;;5027996;28;20042;-65
2023/01/18 02:18:01;;;;;;;9.63;5.03;;;-1.00;99.90;;;;;;5029583;28;20044;-66
2023/01/18 02:20:47;;;;;;;9.32;5.35;;;-1.10;99.90;;;;;;5036678;28;20042;-65
2023/01/18 02:23:27;;;;;;;9.98;6.18;;;-1.10;99.90;;;;;;5032483;28;20037;-65
2023/01/18 02:26:15;;;;;;;8.95;6.05;;;-1.10;99.90;;;;;;5029633;28;20048;-65
2023/01/18 02:28:49;;;;;;;9.82;5.95;;;-1.10;99.90;;;;;;5033165;28;20037;-65
2023/01/18 02:31:23;;;;;;;9.85;5.80;;;-1.10;99.90;;;;;;5034323;28;22382;-65
2023/01/18 02:34:00;;;;;;;11.43;6.30;;;-1.10;99.90;;;;;;5034046;28;20077;-65
2023/01/18 02:36:48;;;;;;;12.95;6.40;;;-1.10;99.90;;;;;;5030585;28;20063;-65
2023/01/18 02:39:48;;;;;;;9.93;6.30;;;-1.10;99.90;;;;;;5025439;28;20036;-65
2023/01/18 02:47:48;;;;;;;13.32;6.65;;;-1.00;99.90;;;;;;5029063;28;20470;-65
2023/01/18 02:50:22;;;;;;;10.98;6.32;;;-1.00;99.90;;;;;;5030148;28;20073;-65
2023/01/18 02:52:52;;;;;;;9.23;6.55;;;-1.00;99.90;;;;;;5026603;28;20073;-65
2023/01/18 02:55:44;;;;;;;10.20;6.15;;;-1.00;99.90;;;;;;5033278;28;20045;-65
2023/01/18 02:58:39;;;;;;;12.18;6.65;;;-0.90;99.90;;;;;;5028418;28;20116;-65
2023/01/18 03:01:14;;;;;;;11.63;6.32;;;-1.00;99.90;;;;;;5033845;28;20477;-65
2023/01/18 03:03:43;;;;;;;10.50;7.15;;;-1.00;99.90;;;;;;5034440;28;20154;-65
2023/01/18 03:06:09;;;;;;;11.98;6.75;;;-1.10;99.90;;;;;;5028130;28;20075;-65
2023/01/18 03:08:48;;;;;;;8.85;6.38;;;-1.00;99.90;;;;;;5019843;28;20069;-65
2023/01/18 03:11:25;;;;;;;13.15;6.70;;;-1.10;99.90;;;;;;5030516;28;20045;-65
2023/01/18 03:14:04;;;;;;;12.23;7.00;;;-1.10;99.90;;;;;;5033468;28;20393;-65
2023/01/18 03:17:25;;;;;;;11.27;6.47;;;-1.10;99.90;;;;;;5030626;28;20164;-65
2023/01/18 03:20:08;;;;;;;13.93;6.75;;;-1.10;99.90;;;;;;5012924;28;20057;-65
2023/01/18 03:25:45;;;;;;;13.55;7.15;;;-1.10;99.90;;;;;;5030973;28;20123;-65
2023/01/18 03:33:55;;;;;;;11.60;7.28;;;-1.10;99.90;;;;;;5030488;28;20509;-65
2023/01/18 03:36:24;;;;;;;11.05;6.78;;;-1.10;99.90;;;;;;5030223;28;20048;-65
2023/01/18 03:39:03;;;;;;;11.27;7.53;;;-1.00;99.90;;;;;;5023689;28;20037;-66
2023/01/18 03:41:34;;;;;;;11.98;8.15;;;-1.10;99.90;;;;;;5030256;28;20113;-65
2023/01/18 03:44:12;;;;;;;14.70;7.88;;;-1.00;99.90;;;;;;5027704;28;20473;-65
2023/01/18 03:46:39;;;;;;;15.98;8.05;;;-1.00;99.90;;;;;;5030453;28;20104;-65
2023/01/18 03:49:06;;;;;;;13.88;8.15;;;-1.00;99.90;;;;;;5027063;28;20042;-65
2023/01/18 03:51:53;;;;;;;12.43;8.07;;;-1.00;99.90;;;;;;5031790;28;20044;-65
2023/01/18 03:54:34;;;;;;;12.93;7.82;;;-1.00;99.90;;;;;;5025942;28;20048;-65
2023/01/18 03:57:06;;;;;;;14.10;8.38;;;-1.10;99.90;;;;;;5025931;28;20030;-65
2023/01/18 03:59:36;;;;;;;13.02;7.82;;;-1.00;99.90;;;;;;5022639;28;20037;-65
2023/01/18 04:02:06;;;;;;;17.17;8.38;;;-1.00;99.90;;;;;;5029104;28;20075;-66
2023/01/18 04:04:31;;;;;;;;;;;-1.00;99.90;;;;;;5028471;28;20034;-65
2023/01/18 04:06:58;;;;;;;12.05;7.95;;;-1.10;99.90;;;;;;5027930;28;20463;-65
2023/01/18 04:09:24;;;;;;;15.02;8.95;;;-1.20;99.90;;;;;;5026957;28;20045;-65
2023/01/18 04:11:50;;;;;;;15.57;8.68;;;-1.20;99.90;;;;;;5030743;28;20134;-65
2023/01/18 04:14:16;;;;;;;14.05;8.55;;;-1.20;99.90;;;;;;5025672;28;20118;-65
2023/01/18 04:16:42;;;;;;;16.40;8.95;;;-1.20;99.90;;;;;;5025244;28;20508;-65
2023/01/18 04:19:08;;;;;;;12.95;7.93;;;-1.20;99.90;;;;;;5027955;28;20088;-65
2023/01/18 04:21:34;;;;;;;14.55;9.00;;;-1.20;99.90;;;;;;5031411;28;20453;-65
2023/01/18 04:24:00;;;;;;;14.15;8.43;;;-1.20;99.90;;;;;;5029205;28;20041;-65
2023/01/18 04:26:25;;;;;;;12.90;8.13;;;-1.20;99.90;;;;;;5026482;28;20061;-66
2023/01/18 04:28:51;;;;;;;14.60;8.77;;;-1.30;99.90;;;;;;5026955;28;20033;-65
2023/01/18 04:31:17;;;;;;;13.95;8.27;;;-1.30;99.90;;;;;;5028895;28;20076;-65
2023/01/18 04:33:42;;;;;;;14.02;7.82;;;-1.30;99.90;;;;;;5030506;28;20147;-65
2023/01/18 04:36:08;;;;;;;15.10;8.90;;;-1.30;99.90;;;;;;5028560;28;20037;-65
2023/01/18 04:38:34;;;;;;;16.55;8.10;;;-1.20;99.90;;;;;;5025871;28;20037;-65
2023/01/18 04:41:03;;;;;;;15.38;8.63;;;-1.30;99.90;;;;;;5031029;28;20148;-65
2023/01/18 04:43:29;;;;;;;16.05;7.97;;;-1.20;99.90;;;;;;5024922;28;20053;-65
2023/01/18 04:45:56;;;;;;;14.30;8.10;;;-1.20;99.90;;;;;;5027067;28;20057;-65
2023/01/18 04:48:22;;;;;;;14.40;8.68;;;-1.30;99.90;;;;;;5021184;28;20584;-65
2023/01/18 04:50:48;;;;;;;13.57;8.13;;;-1.30;99.90;;;;;;5031224;28;20033;-65
2023/01/18 04:53:15;;;;;;;12.63;8.02;;;-1.30;99.90;;;;;;5026094;28;20427;-65
2023/01/18 04:55:40;;;;;;;17.48;8.43;;;-1.30;99.90;;;;;;5025324;28;20039;-65
2023/01/18 04:58:06;;;;;;;16.17;8.70;;;-1.30;99.90;;;;;;5025903;28;20044;-65
2023/01/18 05:00:32;;;;;;;14.75;8.38;;;-1.30;99.90;;;;;;5024747;28;20045;-65
2023/01/18 05:02:57;;;;;;;12.27;8.32;;;-1.30;99.90;;;;;;5024931;28;20107;-65
2023/01/18 05:05:23;;;;;;;15.68;8.80;;;-1.30;99.90;;;;;;5027033;28;20122;-65
2023/01/18 05:07:48;;;;;;;18.67;9.15;;;-1.30;99.90;;;;;;5020228;28;20897;-66
2023/01/18 05:10:14;;;;;;;16.77;8.75;;;-1.30;99.90;;;;;;5024015;28;20397;-65
2023/01/18 05:12:40;;;;;;;17.23;9.68;;;-1.40;99.90;;;;;;5028915;28;20168;-65
2023/01/18 05:15:06;;;;;;;14.13;9.00;;;-1.30;99.90;;;;;;5025317;28;20041;-65
2023/01/18 05:17:33;;;;;;;15.00;8.57;;;-1.30;99.90;;;;;;5026569;28;20056;-65
2023/01/18 05:20:00;;;;;;;12.70;7.70;;;-1.30;99.90;;;;;;5027291;28;20045;-65
2023/01/18 05:22:26;;;;;;;14.15;8.98;;;-1.30;99.90;;;;;;5027596;28;20115;-65
2023/01/18 05:24:53;;;;;;;14.25;8.48;;;-1.30;99.90;;;;;;5028528;28;20156;-64
2023/01/18 05:27:19;;;;;;;16.67;9.00;;;-1.30;99.90;;;;;;5028661;28;20042;-65
2023/01/18 05:29:47;;;;;;;13.68;7.85;;;-1.30;99.90;;;;;;5025277;28;20073;-65
2023/01/18 05:32:12;;;;;;;13.82;8.18;;;-1.30;99.90;;;;;;5032367;28;20038;-65
2023/01/18 05:34:38;;;;;;;13.32;7.85;;;-1.30;99.90;;;;;;5023970;28;20568;-65
2023/01/18 05:37:04;;;;;;;13.48;8.70;;;-1.20;99.90;;;;;;5027545;28;20473;-65
2023/01/18 05:39:29;;;;;;;15.52;9.05;;;-1.20;99.90;;;;;;5028257;28;20056;-65
2023/01/18 05:41:55;;;;;;;12.88;8.30;;;-1.20;99.90;;;;;;5029815;28;20033;-65
2023/01/18 05:44:20;;;;;;;14.85;8.18;;;-1.20;99.90;;;;;;5021880;28;20401;-65
2023/01/18 05:46:46;;;;;;;13.63;7.70;;;-1.20;99.90;;;;;;5030363;28;20034;-65
2023/01/18 05:49:11;;;;;;;13.80;8.27;;;-1.10;99.90;;;;;;5026479;28;20132;-65
2023/01/18 05:51:37;;;;;;;15.45;9.15;;;-1.20;99.90;;;;;;5027091;28;20433;-65
2023/01/18 05:54:03;;;;;;;15.85;8.05;;;-1.10;99.90;;;;;;5014931;28;20080;-65
2023/01/18 05:56:28;;;;;;;12.85;7.90;;;-1.10;99.90;;;;;;5009823;28;20163;-65
2023/01/18 05:58:54;;;;;;;16.45;8.93;;;-1.10;99.90;;;;;;5024632;28;20409;-66
2023/01/18 06:01:20;;;;;;;14.45;8.07;;;-1.10;99.90;;;;;;5019523;28;20092;-65
2023/01/18 06:03:45;;;;;;;11.98;7.80;;;-1.10;99.90;;;;;;5025735;28;20056;-65
2023/01/18 06:06:11;;;;;;;12.88;8.57;;;-1.10;99.90;;;;;;5020616;28;20077;-64
2023/01/18 06:08:36;;;;;;;12.63;8.10;;;-1.10;99.90;;;;;;5027551;28;20033;-66
2023/01/18 06:11:03;;;;;;;13.23;8.15;;;-1.10;99.90;;;;;;5026487;28;20037;-65
2023/01/18 06:13:30;;;;;;;13.55;8.48;;;-1.10;99.90;;;;;;5026659;28;20092;-65
2023/01/18 06:15:57;;;;;;;11.73;7.70;;;-1.20;99.90;;;;;;5027464;28;20497;-65
2023/01/18 06:18:25;;;;;;;14.88;8.70;;;-1.20;99.90;;;;;;5024151;28;20072;-65
2023/01/18 06:20:58;;;;;;;11.05;7.55;;;-1.10;99.90;;;;;;5024029;28;20087;-65
2023/01/18 06:23:24;;;;;;;12.48;7.65;;;-1.20;99.90;;;;;;5028248;28;20515;-65
2023/01/18 06:25:50;;;;;;;14.43;8.43;;;-1.20;99.90;;;;;;5025910;28;20034;-64
2023/01/18 06:28:16;;;;;;;14.68;8.25;;;-1.10;99.90;;;;;;5041548;28;20041;-65
2023/01/18 06:30:42;;;;;;;15.48;7.80;;;-1.10;99.90;;;;;;5026676;28;20048;-65
2023/01/18 06:33:08;;;;;;;15.30;8.70;;;-1.20;99.90;;;;;;5026056;28;20029;-66
2023/01/18 06:35:34;;;;;;;13.52;8.10;;;-1.10;99.90;;;;;;5026600;28;20111;-65
2023/01/18 06:38:03;;;;;;;15.85;8.05;;;-1.20;99.90;;;;;;5023530;28;20444;-65
2023/01/18 06:40:29;;;;;;;15.35;8.10;;;-1.20;99.90;;;;;;5028409;28;20388;-65
2023/01/18 06:42:55;;;;;;;13.38;7.53;;;-1.10;99.90;;;;;;5029383;28;20045;-65
2023/01/18 06:45:21;;;;;;;15.07;8.00;;;-1.00;99.90;;;;;;5025463;28;20038;-66
2023/01/18 06:47:50;;;;;;;14.25;8.30;;;-1.10;99.90;;;;;;5025645;28;20037;-65
2023/01/18 06:50:16;;;;;;;15.50;8.27;;;-1.10;99.90;;;;;;5022492;28;20060;-65
2023/01/18 06:52:42;;;;;;;12.68;7.50;;;-1.10;99.90;;;;;;5023996;28;20041;-66
2023/01/18 06:55:09;;;;;;;15.50;7.78;;;-1.10;99.90;;;;;;5018099;28;20489;-65
2023/01/18 06:57:35;;;;;;;13.48;7.35;;;-1.10;99.90;;;;;;5028606;28;20044;-66
2023/01/18 07:00:04;;;;;;;11.27;7.20;;;-1.10;99.90;;;;;;5018867;28;20026;-65
2023/01/18 07:02:31;;;;;;;15.88;7.07;;;-1.10;99.90;;;;;;5021921;28;20041;-65
2023/01/18 07:04:56;;;;;;;16.35;7.63;;;-1.10;99.90;;;;;;5021599;28;20049;-65
2023/01/18 07:07:22;;;;;;;12.75;7.30;;;-1.00;99.90;;;;;;5026214;28;20068;-65
2023/01/18 07:09:47;;;;;;;15.52;7.82;;;-1.00;99.90;;;;;;5025654;28;20049;-65
2023/01/18 07:12:13;;;;;;;11.23;6.90;;;-1.00;99.90;;;;;;5033416;28;20065;-65
2023/01/18 07:14:38;;;;;;;14.43;8.13;;;-0.90;99.90;;;;;;5028231;28;20053;-66
2023/01/18 07:17:04;;;;;;;15.55;7.78;;;-1.00;99.90;;;;;;5027880;28;20034;-66
2023/01/18 07:19:29;;;;;;;14.63;7.90;;;-1.00;99.90;;;;;;5033229;28;20049;-66
2023/01/18 07:21:56;;;;;;;15.38;7.63;;;-1.00;99.90;;;;;;5029536;28;20404;-66
2023/01/18 07:24:22;;;;;;;12.35;7.82;;;-1.00;99.90;;;;;;5025308;28;20037;-66
2023/01/18 07:26:47;;;;;;;12.93;7.60;;;-1.10;99.90;;;;;;5028002;28;20646;-66
2023/01/18 07:29:13;;;;;;;15.38;7.80;;;-1.00;99.90;;;;;;5010403;28;20471;-65
2023/01/18 07:31:39;;;;;;;13.20;7.90;;;-1.10;99.90;;;;;;5032085;28;20025;-66
2023/01/18 07:34:05;;;;;;;15.18;8.25;;;-1.00;99.90;;;;;;5034506;28;20042;-65
2023/01/18 07:36:30;;;;;;;15.07;8.18;;;-1.10;99.90;;;;;;5029434;28;20042;-66
2023/01/18 07:38:56;;;;;;;18.58;7.68;;;-1.10;99.90;;;;;;5024466;28;20033;-65
2023/01/18 07:41:22;;;;;;;12.77;7.40;;;-1.10;99.90;;;;;;5026472;28;20481;-66
2023/01/18 07:43:48;;;;;;;15.77;8.10;;;-1.20;99.90;;;;;;5029298;28;20511;-65
2023/01/18 07:46:15;;;;;;;13.15;7.72;;;-1.10;99.90;;;;;;5029142;28;20045;-66
2023/01/18 07:48:41;;;;;;;15.50;8.30;;;-1.20;99.90;;;;;;5029279;28;20072;-66
2023/01/18 07:51:09;;;;;;;14.00;8.23;;;-1.30;99.90;;;;;;5030184;28;20134;-66
2023/01/18 07:53:35;;;;;;;16.60;7.38;;;-1.30;99.90;;;;;;5023391;28;20060;-66
2023/01/18 07:56:14;;;;;;;16.70;8.35;;;-1.20;99.90;;;;;;5027313;28;20068;-67
2023/01/18 07:58:40;;;;;;;13.68;7.38;;;-1.30;99.90;;;;;;5021083;28;20480;-66
2023/01/18 08:01:13;;;;;;;17.15;8.60;;;-1.30;99.90;;;;;;5009428;28;20050;-65
2023/01/18 08:03:41;;;;;;;12.75;8.10;;;-1.30;99.90;;;;;;5029116;28;20041;-66
2023/01/18 08:06:08;;;;;;;15.75;8.80;;;-1.40;99.90;;;;;;5027342;28;20416;-66
2023/01/18 08:08:34;;;;;;;14.63;8.10;;;-1.30;99.90;;;;;;5027487;28;20106;-65
2023/01/18 08:11:02;;;;;;;14.43;8.50;;;-1.30;99.90;;;;;;5021811;28;20178;-66
2023/01/18 08:13:28;;;;;;;13.25;8.13;;;-1.30;99.90;;;;;;5026246;28;20071;-66
2023/01/18 08:15:54;;;;;;;17.13;9.73;;;-1.40;99.90;;;;;;5027142;28;20041;-66
2023/01/18 08:18:20;;;;;;;15.90;9.30;;;-1.30;99.90;;;;;;5017593;28;20036;-66
2023/01/18 08:20:48;;;;;;;16.30;9.35;;;-1.30;99.90;;;;;;5030855;28;20381;-66
2023/01/18 08:23:14;;;;;;;18.15;9.85;;;-1.30;99.90;;;;;;5030711;28;20158;-65
2023/01/18 08:25:41;;;;;;;14.38;9.48;;;-1.30;99.90;;;;;;5024900;28;20038;-66
2023/01/18 08:28:07;;;;;;;14.25;8.82;;;-1.20;99.90;;;;;;5027233;28;20502;-66
2023/01/18 08:30:37;;;;;;;13.45;9.00;;;-1.30;99.90;;;;;;5027941;28;20041;-66
2023/01/18 08:33:03;;;;;;;17.08;10.27;;;-1.30;99.90;;;;;;5025242;28;20497;-66
2023/01/18 08:35:31;;;;;;;17.55;10.52;;;-1.30;99.90;;;;;;5028868;28;20103;-66
2023/01/18 08:37:58;;;;;;;19.20;9.88;;;-1.30;99.90;;;;;;5027913;28;20399;-66
2023/01/18 08:40:24;;;;;;;16.67;9.55;;;-1.30;99.90;;;;;;5026883;28;20388;-66
2023/01/18 08:42:54;;;;;;;20.17;9.60;;;-1.30;99.90;;;;;;5028286;28;20099;-66
2023/01/18 08:45:19;;;;;;;17.52;10.15;;;-1.20;99.90;;;;;;5027040;28;20103;-65
2023/01/18 08:47:45;;;;;;;18.85;10.70;;;-1.10;99.90;;;;;;5030106;28;20045;-65
2023/01/18 08:50:11;;;;;;;16.00;10.20;;;-1.00;99.90;;;;;;5024169;28;20461;-66
2023/01/18 08:52:36;;;;;;;16.05;9.35;;;-1.00;99.90;;;;;;5031234;28;20041;-65
2023/01/18 08:55:06;;;;;;;18.10;9.30;;;-0.90;99.90;;;;;;5029070;28;20041;-65
2023/01/18 08:57:31;;;;;;;20.30;10.50;;;-0.90;99.90;;;;;;5029958;28;20114;-65
2023/01/18 08:59:57;;;;;;;18.33;9.38;;;-0.80;99.90;;;;;;5023933;28;20120;-65
2023/01/18 09:02:26;;;;;;;18.13;9.63;;;-0.80;99.90;;;;;;5026616;28;20496;-65
2023/01/18 09:04:52;;;;;;;19.48;9.73;;;-0.70;99.90;;;;;;5020819;28;20041;-65
2023/01/18 09:07:18;;;;;;;18.63;10.20;;;-0.60;99.90;;;;;;5027722;28;20584;-65
2023/01/18 09:09:44;;;;;;;16.35;10.10;;;-0.50;99.90;;;;;;5028311;28;20525;-65
2023/01/18 09:12:11;;;;;;;14.57;9.70;;;-0.50;99.90;;;;;;5026887;28;20049;-65
2023/01/18 09:14:37;;;;;;;20.27;8.18;;;-0.40;99.90;;;;;;5029040;28;20044;-65
2023/01/18 09:17:03;;;;;;;16.17;9.32;;;-0.30;99.90;;;;;;5029788;28;20055;-65
2023/01/18 09:19:28;;;;;;;16.55;9.85;;;-0.30;99.90;;;;;;5022106;28;20698;-65
2023/01/18 09:21:54;;;;;;;15.05;10.02;;;-0.20;99.90;;;;;;5023341;28;20036;-65
2023/01/18 09:24:19;;;;;;;14.15;8.60;;;-0.20;99.90;;;;;;5025174;28;20469;-66
2023/01/18 09:26:49;;;;;;;15.88;9.13;;;-0.10;99.90;;;;;;5028386;28;20088;-66
2023/01/18 09:29:15;;;;;;;22.02;9.85;;;-0.10;99.90;;;;;;5026078;28;20049;-66
2023/01/18 09:31:40;;;;;;;16.85;9.50;;;0.00;99.90;;;;;;5025518;28;20045;-66
2023/01/18 09:34:06;;;;;;;15.35;9.00;;;0.10;99.90;;;;;;5026719;28;20046;-65
2023/01/18 09:36:32;;;;;;;15.55;9.70;;;0.20;99.90;;;;;;5026661;28;20121;-64
2023/01/18 09:38:57;;;;;;;15.13;9.40;;;0.30;99.90;;;;;;5027656;28;20045;-65
2023/01/18 09:41:39;;;;;;;14.65;8.52;;;0.30;99.90;;;;;;5025680;28;20033;-65
2023/01/18 09:44:31;;;;;;;13.95;8.57;;;0.40;99.90;;;;;;5024051;28;20350;-65
2023/01/18 09:47:14;;;;;;;13.80;9.05;;;0.40;99.90;;;;;;5028083;28;20041;-65
2023/01/18 09:49:55;;;;;;;13.05;8.23;;;0.40;99.90;;;;;;5025124;28;20052;-64
2023/01/18 09:52:41;;;;;;;14.50;8.57;;;0.50;99.90;;;;;;5035090;28;20038;-65
2023/01/18 09:55:26;;;;;;;16.85;8.88;;;0.50;99.90;;;;;;5020345;28;20155;-65
2023/01/18 09:57:58;;;;;;;13.52;8.43;;;0.60;99.90;;;;;;5014219;28;20061;-66
2023/01/18 10:00:27;;;;;;;14.15;8.57;;;0.70;99.90;;;;;;5018272;28;20128;-65
2023/01/18 10:03:01;;;;;;;16.10;9.60;;;0.70;99.90;;;;;;5028800;28;20049;-66
2023/01/18 10:05:31;;;;;;;15.52;8.30;;;0.70;99.90;;;;;;5026260;28;20049;-64
2023/01/18 10:08:06;;;;;;;12.30;8.23;;;0.90;99.90;;;;;;5019027;28;20393;-65
2023/01/18 10:10:50;;;;;;;14.80;8.90;;;0.90;99.90;;;;;;5014636;28;20124;-65
2023/01/18 10:13:34;;;;;;;13.93;8.23;;;1.00;99.90;;;;;;5015444;28;20433;-67
2023/01/18 10:16:01;;;;;;;14.65;8.80;;;1.00;99.90;;;;;;5012290;28;20045;-66
2023/01/18 10:18:27;;;;;;;13.73;7.88;;;1.00;99.90;;;;;;5019469;28;20042;-66
2023/01/18 10:21:00;;;;;;;15.00;8.23;;;1.10;99.90;;;;;;5028524;28;20516;-66
2023/01/18 10:23:33;;;;;;;15.50;8.55;;;1.10;99.90;;;;;;5014048;28;20125;-65
2023/01/18 10:26:07;;;;;;;12.93;8.40;;;1.20;99.90;;;;;;5018973;28;20041;-66
2023/01/18 10:29:11;;;;;;;13.88;8.70;;;1.30;99.90;;;;;;5024561;28;20437;-64
2023/01/18 10:31:36;;;;;;;14.82;7.65;;;1.40;99.90;;;;;;5011960;28;20497;-65
2023/01/18 10:34:30;;;;;;;13.30;7.55;;;1.40;99.90;;;;;;5029366;28;20076;-67
2023/01/18 10:37:16;;;;;;;13.13;7.88;;;1.40;99.90;;;;;;5021193;28;20065;-66
2023/01/18 10:39:51;;;;;;;11.25;7.53;;;1.50;99.90;;;;;;5022091;28;20052;-65
2023/01/18 10:42:25;;;;;;;10.90;7.30;;;1.60;99.90;;;;;;5018733;28;20033;-64
2023/01/18 10:44:51;;;;;;;12.52;7.78;;;1.60;99.90;;;;;;5018588;28;20046;-65
2023/01/18 10:47:18;;;;;;;12.45;8.00;;;1.70;99.90;;;;;;5024821;28;20087;-65
2023/01/18 10:49:45;;;;;;;12.40;8.13;;;1.70;99.90;;;;;;5020727;28;20496;-65
2023/01/18 10:52:24;;;;;;;12.27;7.53;;;1.80;99.90;;;;;;5029055;28;20033;-65
2023/01/18 10:55:00;;;;;;;13.45;7.80;;;1.80;99.90;;;;;;5018354;28;20077;-66
2023/01/18 10:57:34;;;;;;;15.82;7.93;;;1.80;99.90;;;;;;5030938;28;20038;-65
2023/01/18 11:00:00;;;;;;;12.88;8.82;;;1.90;99.90;;;;;;5022260;28;20123;-65
2023/01/18 11:02:33;;;;;;;11.15;7.03;;;2.10;99.90;;;;;;5030067;28;20047;-66
2023/01/18 11:05:19;;;;;;;12.18;6.78;;;2.10;99.90;;;;;;5027779;28;20041;-67
2023/01/18 11:07:45;;;;;;;13.30;7.38;;;2.20;99.90;;;;;;5031840;28;20053;-65
2023/01/18 11:10:26;;;;;;;12.05;6.63;;;2.20;99.90;;;;;;5019951;28;20056;-66
2023/01/18 11:12:53;;;;;;;10.70;6.78;;;2.20;99.90;;;;;;5030712;28;20045;-66
2023/01/18 11:15:18;;;;;;;13.20;7.03;;;2.30;99.90;;;;;;5021231;28;20034;-65
2023/01/18 11:17:54;;;;;;;14.38;7.60;;;2.30;99.90;;;;;;5032448;28;20041;-65
2023/01/18 11:20:32;;;;;;;12.25;7.05;;;2.40;99.90;;;;;;5032532;28;20045;-66
2023/01/18 11:23:05;;;;;;;11.25;6.47;;;2.40;99.90;;;;;;5027619;28;20091;-67
2023/01/18 11:25:41;;;;;;;9.25;6.30;;;2.40;99.90;;;;;;5030566;28;20370;-65
2023/01/18 11:28:38;;;;;;;11.02;6.32;;;2.50;99.90;;;;;;5033299;28;20041;-66
2023/01/18 11:31:11;;;;;;;10.43;5.78;;;2.50;99.90;;;;;;5027295;28;20049;-67
2023/01/18 11:33:48;;;;;;;11.13;7.00;;;2.60;99.90;;;;;;5029973;28;20056;-66
2023/01/18 11:36:15;;;;;;;10.70;7.05;;;2.60;99.90;;;;;;5026510;28;20037;-64
2023/01/18 11:38:40;;;;;;;10.30;6.00;;;2.60;99.90;;;;;;5021342;28;20034;-67
2023/01/18 11:41:19;;;;;;;11.00;6.28;;;2.70;99.90;;;;;;5028960;28;20476;-66
2023/01/18 11:44:28;;;;;;;9.52;5.90;;;2.80;99.90;;;;;;5023987;28;20056;-65
2023/01/18 11:46:57;;;;;;;10.90;6.10;;;2.80;99.90;;;;;;5024590;28;20049;-66
2023/01/18 11:49:41;;;;;;;10.50;5.68;;;2.80;99.90;;;;;;5024415;28;20033;-65
2023/01/18 11:52:33;;;;;;;7.38;5.60;;;2.90;99.90;;;;;;5020927;28;20111;-65
2023/01/18 11:55:04;;;;;;;8.48;5.10;;;2.90;99.90;;;;;;5021445;28;20765;-65
2023/01/18 11:57:30;;;;;;;8.60;5.82;;;3.00;99.90;;;;;;5023685;28;20037;-64
2023/01/18 11:59:55;;;;;;;10.18;6.05;;;3.10;99.90;;;;;;5029605;28;20393;-66
2023/01/18 12:02:33;;;;;;;8.60;5.90;;;3.10;99.90;;;;;;5020245;28;20033;-65
2023/01/18 12:05:21;;;;;;;9.02;5.65;;;3.10;99.90;;;;;;5028750;28;20650;-66
2023/01/18 12:08:21;;;;;;;8.98;5.30;;;3.20;99.90;;;;;;5024504;28;22627;-66
2023/01/18 12:11:34;;;;;;;9.63;5.13;;;3.20;99.90;;;;;;5021775;28;20045;-65
2023/01/18 12:14:14;;;;;;;9.90;5.10;;;3.30;99.90;;;;;;5024154;28;20116;-67
2023/01/18 12:17:05;;;;;;;8.30;5.38;;;3.30;99.90;;;;;;5024503;28;20038;-67
2023/01/18 12:20:19;;;;;;;9.88;5.25;;;3.40;99.90;;;;;;5030878;28;20072;-66
2023/01/18 12:23:21;;;;;;;9.50;5.18;;;3.50;99.90;;;;;;4993114;28;20045;-66
2023/01/18 12:26:11;;;;;;;10.27;4.93;;;3.60;99.90;;;;;;5025082;28;20053;-66
2023/01/18 12:29:09;;;;;;;7.13;4.65;;;3.60;99.90;;;;;;5029204;28;20488;-65
2023/01/18 12:32:07;;;;;;;9.13;5.10;;;3.60;99.90;;;;;;5022631;28;20041;-66
2023/01/18 12:35:17;;;;;;;10.07;4.97;;;3.60;99.90;;;;;;5023351;28;20416;-66
2023/01/18 12:37:57;;;;;;;10.80;4.78;;;3.70;99.90;;;;;;5022644;28;20049;-66
2023/01/18 12:40:32;;;;;;;7.18;4.40;;;3.60;99.90;;;;;;5025334;28;20048;-67
2023/01/18 12:43:11;;;;;;;9.68;5.15;;;3.70;99.90;;;;;;5024577;28;20049;-66
2023/01/18 12:45:56;;;;;;;7.95;5.25;;;3.70;99.90;;;;;;5024847;28;20053;-67
2023/01/18 12:48:41;;;;;;;11.13;4.80;;;3.80;99.90;;;;;;5019948;28;20381;-66
2023/01/18 12:51:14;;;;;;;8.65;4.30;;;3.70;99.90;;;;;;5001525;28;20056;-66
2023/01/18 12:54:06;;;;;;;11.68;5.05;;;3.70;99.90;;;;;;4982461;28;20056;-66
2023/01/18 12:56:37;;;;;;;9.55;4.38;;;3.80;99.90;;;;;;4995467;28;20055;-65
2023/01/18 12:59:14;;;;;;;7.45;4.35;;;3.80;99.90;;;;;;5015926;28;20048;-66
2023/01/18 13:01:50;;;;;;;11.25;5.38;;;3.80;99.90;;;;;;5016680;28;20053;-66
2023/01/18 13:04:28;;;;;;;8.60;5.10;;;3.80;99.90;;;;;;5021580;28;20626;-67
2023/01/18 13:07:05;;;;;;;11.30;4.95;;;3.90;99.90;;;;;;5025892;28;20049;-66
2023/01/18 13:09:37;;;;;;;7.88;4.55;;;3.90;99.90;;;;;;5021302;28;20033;-66
2023/01/18 13:12:04;;;;;;;9.63;4.50;;;3.90;99.90;;;;;;5018572;28;20034;-65
2023/01/18 13:14:47;;;;;;;7.25;4.97;;;3.90;99.90;;;;;;5026667;28;20041;-67
2023/01/18 13:17:32;;;;;;;6.07;4.57;;;3.90;99.90;;;;;;5025315;28;20481;-67
2023/01/18 13:20:10;;;;;;;9.10;4.57;;;3.90;99.90;;;;;;5020306;28;20476;-67
2023/01/18 13:23:13;;;;;;;6.35;3.95;;;3.90;99.90;;;;;;5025082;28;20050;-67
2023/01/18 13:25:55;;;;;;;8.07;4.40;;;3.90;99.90;;;;;;5021075;28;20030;-68
2023/01/18 13:28:23;;;;;;;9.15;4.70;;;3.90;99.90;;;;;;5022925;28;20132;-66
2023/01/18 13:30:53;;;;;;;8.93;4.40;;;3.90;99.90;;;;;;5027093;28;20033;-66
2023/01/18 13:33:22;;;;;;;6.80;4.00;;;3.90;99.90;;;;;;5026796;28;20041;-66
2023/01/18 13:36:01;;;;;;;10.85;4.85;;;3.90;99.90;;;;;;5028242;28;20040;-69